Time;durP1;ratioP1;P1;durP2;ratioP2;P2;SDS_P1;SDS_P2;PMS_P1;PMS_P2;Temp;Humidity;BMP_temperature;BMP_pressure;BME280_temperature;BME280_humidity;BME280_pressure;Samples;Min_cycle;Max_cycle;Signal;HPM_P1;HPM_P2
2024/01/05 00:01:54;;;;;;;202.20;62.33;;;;;;;2.06;100.00;98605.52;1699864;84;21078;-78
2024/01/05 00:04:22;;;;;;;188.82;57.60;;;;;;;2.06;100.00;98613.63;1699879;83;21062;-78
2024/01/05 00:06:51;;;;;;;211.30;59.18;;;;;;;2.07;100.00;98615.30;1699912;84;21027;-77
2024/01/05 00:09:20;;;;;;;207.67;58.33;;;;;;;2.08;100.00;98617.48;1699848;84;21023;-76
2024/01/05 00:11:48;;;;;;;181.97;59.08;;;;;;;2.08;100.00;98617.48;1699696;84;21074;-78
2024/01/05 00:14:17;;;;;;;191.15;58.40;;;;;;;2.06;100.00;98620.38;1699726;83;21046;-78
2024/01/05 00:16:46;;;;;;;183.93;57.73;;;;;;;2.03;100.00;98617.21;1699706;84;21455;-78
2024/01/05 00:19:14;;;;;;;183.47;57.30;;;;;;;2.01;100.00;98617.91;1699826;84;21018;-78
2024/01/05 00:21:43;;;;;;;184.48;58.08;;;;;;;1.97;100.00;98622.84;1699695;84;21038;-77
2024/01/05 00:24:11;;;;;;;184.48;57.13;;;;;;;1.94;100.00;98615.09;1699719;83;21074;-78
2024/01/05 00:26:43;;;;;;;185.55;55.23;;;;;;;1.93;100.00;98620.16;1699638;84;21022;-76
2024/01/05 00:29:12;;;;;;;175.75;56.05;;;;;;;1.94;100.00;98623.19;1689793;84;21050;-76
2024/01/05 00:31:41;;;;;;;166.45;54.42;;;;;;;1.95;100.00;98622.67;1699762;84;21075;-76
2024/01/05 00:34:09;;;;;;;179.53;52.25;;;;;;;1.94;100.00;98629.94;1699984;83;21106;-77
2024/01/05 00:36:38;;;;;;;167.25;53.48;;;;;;;1.97;100.00;98626.90;1699755;84;21040;-76
2024/01/05 00:39:06;;;;;;;181.45;57.95;;;;;;;1.97;100.00;98630.11;1699880;84;21110;-76
2024/01/05 00:41:35;;;;;;;174.87;54.25;;;;;;;1.97;100.00;98637.70;1700737;83;21030;-76
2024/01/05 00:44:04;;;;;;;198.87;56.28;;;;;;;1.97;100.00;98639.05;1670846;86;21062;-76
2024/01/05 00:46:32;;;;;;;176.90;56.23;;;;;;;1.99;100.00;98641.05;1704817;84;21030;-77
2024/01/05 00:49:01;;;;;;;173.65;54.83;;;;;;;1.95;100.00;98644.28;1653375;86;21119;-77
2024/01/05 00:51:29;;;;;;;180.27;55.95;;;;;;;1.94;100.00;98639.39;1670881;85;21471;-78
2024/01/05 00:53:58;;;;;;;182.78;59.25;;;;;;;1.94;100.00;98645.30;1704652;83;21049;-78
2024/01/05 00:56:27;;;;;;;188.95;58.02;;;;;;;1.92;100.00;98641.44;1671037;86;21093;-77
2024/01/05 00:58:55;;;;;;;184.00;56.92;;;;;;;1.94;100.00;98648.84;1670875;85;21050;-78
2024/01/05 01:01:23;;;;;;;184.67;58.13;;;;;;;1.97;100.00;98651.20;1671049;86;21066;-75
2024/01/05 01:03:52;;;;;;;180.90;55.92;;;;;;;1.98;100.00;98646.64;1671091;86;21157;-77
2024/01/05 01:06:20;;;;;;;171.45;56.23;;;;;;;1.97;100.00;98647.67;1704792;84;21081;-75
2024/01/05 01:08:49;;;;;;;173.55;56.42;;;;;;;1.96;100.00;98645.98;1670826;85;21478;-77
2024/01/05 01:11:18;;;;;;;189.55;54.40;;;;;;;1.93;100.00;98647.17;1670956;85;21062;-77
2024/01/05 01:13:46;;;;;;;184.35;54.93;;;;;;;1.93;100.00;98657.97;1670943;85;21172;-75
2024/01/05 01:16:14;;;;;;;182.88;55.25;;;;;;;1.95;100.00;98654.60;1670989;84;21059;-76
2024/01/05 01:18:43;;;;;;;180.72;59.10;;;;;;;1.96;100.00;98656.28;1670895;84;21435;-76
2024/01/05 01:21:11;;;;;;;184.78;59.70;;;;;;;1.94;100.00;98654.25;1704669;83;21088;-76
2024/01/05 01:23:40;;;;;;;186.15;56.10;;;;;;;1.95;100.00;98660.48;1704668;83;21100;-76
2024/01/05 01:26:08;;;;;;;169.57;55.30;;;;;;;1.97;100.00;98662.52;1704761;84;21069;-75
2024/01/05 01:28:37;;;;;;;184.95;57.05;;;;;;;1.98;100.00;98660.14;1704684;83;21026;-77
2024/01/05 01:31:05;;;;;;;173.45;55.00;;;;;;;2.00;100.00;98665.69;1704762;84;21092;-76
2024/01/05 01:33:34;;;;;;;180.40;56.37;;;;;;;2.00;100.00;98653.53;1704874;84;21089;-76
2024/01/05 01:36:03;;;;;;;168.87;55.28;;;;;;;1.98;100.00;98658.28;1704694;84;21021;-77
2024/01/05 01:38:31;;;;;;;180.05;55.33;;;;;;;1.93;100.00;98659.31;1670845;86;21047;-78
2024/01/05 01:40:59;;;;;;;169.70;54.63;;;;;;;1.91;100.00;98664.91;1704680;84;21060;-78
2024/01/05 01:43:28;;;;;;;178.90;58.92;;;;;;;1.89;100.00;98663.41;1673187;85;21046;-77
2024/01/05 01:45:58;;;;;;;186.55;58.55;;;;;;;1.86;100.00;98664.63;1646251;86;21098;-78
2024/01/05 01:48:26;;;;;;;174.05;56.80;;;;;;;1.85;100.00;98657.55;1646415;86;21081;-78
2024/01/05 01:50:55;;;;;;;176.00;57.30;;;;;;;1.83;100.00;98664.98;1646285;86;21118;-77
2024/01/05 01:53:25;;;;;;;172.85;55.45;;;;;;;1.81;100.00;98656.23;1646288;87;21078;-76
2024/01/05 01:55:53;;;;;;;179.40;56.77;;;;;;;1.80;100.00;98657.77;1646197;86;21189;-78
2024/01/05 01:58:22;;;;;;;169.15;53.50;;;;;;;1.78;100.00;98658.47;1646356;87;21462;-79
2024/01/05 02:00:50;;;;;;;169.90;53.92;;;;;;;1.79;100.00;98662.84;1646285;87;21097;-79
2024/01/05 02:03:18;;;;;;;173.72;54.53;;;;;;;1.80;100.00;98669.92;1646352;86;21074;-78
2024/01/05 02:05:47;;;;;;;170.47;54.65;;;;;;;1.84;100.00;98668.53;1646425;87;21066;-77
2024/01/05 02:08:16;;;;;;;161.90;53.42;;;;;;;1.84;100.00;98669.88;1638895;87;21105;-77
2024/01/05 02:10:44;;;;;;;168.13;54.88;;;;;;;1.83;100.00;98662.80;1646383;87;21078;-77
2024/01/05 02:13:14;;;;;;;175.68;55.58;;;;;;;1.84;100.00;98670.72;1646486;87;21549;-78
2024/01/05 02:15:43;;;;;;;186.60;56.05;;;;;;;1.81;100.00;98671.09;1646169;87;21118;-78
2024/01/05 02:18:13;;;;;;;181.82;56.65;;;;;;;1.80;100.00;98669.92;1646311;86;21126;-76
2024/01/05 02:20:46;;;;;;;189.45;58.15;;;;;;;1.80;100.00;98676.67;1646327;87;21510;-76
2024/01/05 02:23:24;;;;;;;187.40;58.92;;;;;;;1.82;100.00;98673.27;1646317;87;21593;-76
2024/01/05 02:25:54;;;;;;;198.30;58.17;;;;;;;1.83;100.00;98673.60;1646326;86;21086;-77
2024/01/05 02:28:23;;;;;;;186.70;57.23;;;;;;;1.85;100.00;98674.26;1646295;86;21082;-77
2024/01/05 02:30:56;;;;;;;192.03;57.17;;;;;;;1.86;100.00;98669.19;1646504;87;21106;-77
2024/01/05 02:33:24;;;;;;;188.18;56.10;;;;;;;1.86;100.00;98677.28;1646452;86;21082;-77
2024/01/05 02:35:53;;;;;;;189.43;57.67;;;;;;;1.83;100.00;98681.70;1646386;87;21078;-78
2024/01/05 02:38:22;;;;;;;192.50;60.67;;;;;;;1.82;100.00;98685.42;1646495;87;21069;-77
2024/01/05 02:40:50;;;;;;;195.87;63.75;;;;;;;1.81;100.00;98687.80;1646500;87;21066;-78
2024/01/05 02:43:18;;;;;;;202.53;64.60;;;;;;;1.80;100.00;98688.31;1653030;84;21094;-77
2024/01/05 02:45:47;;;;;;;199.72;59.75;;;;;;;1.82;100.00;98685.42;1649620;87;21130;-77
2024/01/05 02:48:15;;;;;;;185.78;59.27;;;;;;;1.83;100.00;98688.45;1657874;86;21630;-78
2024/01/05 02:50:44;;;;;;;181.02;59.03;;;;;;;1.83;100.00;98688.45;1623202;88;21091;-77
2024/01/05 02:53:12;;;;;;;174.40;55.17;;;;;;;1.83;100.00;98688.45;1693282;84;21059;-78
2024/01/05 02:55:40;;;;;;;181.00;56.08;;;;;;;1.82;100.00;98693.52;1693250;85;21078;-82
2024/01/05 02:58:09;;;;;;;152.10;49.93;;;;;;;1.81;100.00;98693.20;1693547;85;21098;-77
2024/01/05 03:00:37;;;;;;;169.25;52.85;;;;;;;1.81;100.00;98692.69;1693597;84;21030;-77
2024/01/05 03:03:06;;;;;;;158.50;50.28;;;;;;;1.83;100.00;98702.80;1693293;85;21452;-76
2024/01/05 03:05:35;;;;;;;156.97;50.65;;;;;;;1.84;100.00;98700.42;1693270;84;21439;-77
2024/01/05 03:08:04;;;;;;;173.28;50.43;;;;;;;1.87;100.00;98699.22;1693402;85;21054;-77
2024/01/05 03:10:32;;;;;;;164.97;51.05;;;;;;;1.87;100.00;98700.05;1693815;85;22010;-76
2024/01/05 03:13:01;;;;;;;183.70;50.88;;;;;;;1.88;100.00;98704.94;1694074;85;21071;-77
2024/01/05 03:15:30;;;;;;;161.35;49.77;;;;;;;1.85;100.00;98711.55;1693640;85;20999;-77
2024/01/05 03:17:58;;;;;;;185.00;53.17;;;;;;;1.88;100.00;98707.64;1693607;84;21066;-76
2024/01/05 03:20:27;;;;;;;182.40;54.98;;;;;;;1.87;100.00;98702.75;1693353;84;21459;-76
2024/01/05 03:22:55;;;;;;;182.22;53.70;;;;;;;1.84;100.00;98706.33;1693543;84;21428;-76
2024/01/05 03:25:24;;;;;;;178.05;52.08;;;;;;;1.84;100.00;98703.63;1693314;84;21055;-77
2024/01/05 03:27:52;;;;;;;185.37;52.05;;;;;;;1.85;100.00;98710.70;1693195;85;21051;-75
2024/01/05 03:30:21;;;;;;;166.82;52.30;;;;;;;1.83;100.00;98710.05;1693135;85;21325;-78
2024/01/05 03:32:49;;;;;;;182.93;53.63;;;;;;;1.81;100.00;98711.59;1693229;83;21085;-76
2024/01/05 03:35:18;;;;;;;173.82;53.70;;;;;;;1.83;100.00;98707.35;1693271;84;21077;-77
2024/01/05 03:37:46;;;;;;;175.60;53.33;;;;;;;1.85;100.00;98708.01;1693272;84;21035;-78
2024/01/05 03:40:15;;;;;;;179.80;52.62;;;;;;;1.86;100.00;98716.44;1693317;84;21466;-76
2024/01/05 03:42:43;;;;;;;174.30;51.48;;;;;;;1.87;100.00;98708.66;1695096;83;21078;-76
2024/01/05 03:45:12;;;;;;;186.10;53.17;;;;;;;1.85;100.00;98709.36;1699785;83;21062;-78
2024/01/05 03:47:40;;;;;;;176.87;52.17;;;;;;;1.83;100.00;98708.19;1703668;84;21062;-77
2024/01/05 03:50:09;;;;;;;176.07;52.50;;;;;;;1.84;100.00;98709.03;1699830;83;21090;-77
2024/01/05 03:52:38;;;;;;;175.22;52.73;;;;;;;1.84;100.00;98708.52;1699714;84;21058;-76
2024/01/05 03:55:07;;;;;;;180.30;52.75;;;;;;;1.86;100.00;98713.73;1699783;84;21077;-77
2024/01/05 03:57:35;;;;;;;172.53;52.27;;;;;;;1.85;100.00;98718.30;1699718;84;21019;-76
2024/01/05 04:00:07;;;;;;;167.28;53.38;;;;;;;1.85;100.00;98718.81;1689986;83;21073;-78
2024/01/05 04:02:36;;;;;;;175.27;51.28;;;;;;;1.83;100.00;98719.50;1699886;84;21046;-77
2024/01/05 04:05:05;;;;;;;170.87;51.00;;;;;;;1.83;100.00;98720.86;1699863;83;21070;-77
2024/01/05 04:07:35;;;;;;;165.62;50.45;;;;;;;1.82;100.00;98720.52;1699925;83;21054;-78
2024/01/05 04:10:07;;;;;;;180.82;52.55;;;;;;;1.83;100.00;98729.80;1699621;84;21609;-76
2024/01/05 04:12:36;;;;;;;176.50;51.88;;;;;;;1.84;100.00;98727.93;1700063;83;21101;-77
2024/01/05 04:15:07;;;;;;;172.47;54.93;;;;;;;1.84;100.00;98729.28;1699898;84;21039;-77
2024/01/05 04:17:35;;;;;;;167.50;52.48;;;;;;;1.82;100.00;98727.28;1699875;83;21050;-76
2024/01/05 04:20:06;;;;;;;171.10;52.23;;;;;;;1.79;100.00;98737.93;1699996;83;21023;-77
2024/01/05 04:22:34;;;;;;;174.00;53.05;;;;;;;1.77;100.00;98740.48;1699747;83;21050;-77
2024/01/05 04:25:03;;;;;;;195.57;57.20;;;;;;;1.76;100.00;98741.50;1699725;84;21588;-78
2024/01/05 04:27:31;;;;;;;168.47;56.35;;;;;;;1.76;100.00;98742.34;1699793;84;21065;-78
2024/01/05 04:30:00;;;;;;;174.90;56.83;;;;;;;1.79;100.00;98738.44;1699763;84;21050;-78
2024/01/05 04:32:29;;;;;;;182.32;58.75;;;;;;;1.79;100.00;98739.79;1699777;84;21046;-77
2024/01/05 04:34:57;;;;;;;183.65;54.85;;;;;;;1.80;100.00;98744.17;1699679;83;21486;-78
2024/01/05 04:37:26;;;;;;;197.65;63.58;;;;;;;1.81;100.00;98743.15;1699835;84;21078;-76
2024/01/05 04:39:54;;;;;;;199.15;66.30;;;;;;;1.82;100.00;98748.88;1699800;84;20999;-77
2024/01/05 04:42:22;;;;;;;218.33;71.22;;;;;;;1.81;100.00;98742.64;1699762;83;21027;-78
2024/01/05 04:44:51;;;;;;;212.48;75.35;;;;;;;1.80;100.00;98744.17;1657749;85;21046;-78
2024/01/05 04:47:19;;;;;;;222.20;76.70;;;;;;;1.81;100.00;98745.84;1675413;86;21030;-76
2024/01/05 04:49:47;;;;;;;217.77;76.22;;;;;;;1.79;100.00;98753.29;1674990;84;21046;-77
2024/01/05 04:52:16;;;;;;;226.45;78.42;;;;;;;1.81;100.00;98755.30;1669487;84;21085;-78
2024/01/05 04:54:44;;;;;;;230.03;83.58;;;;;;;1.82;100.00;98765.08;1675222;86;21050;-77
2024/01/05 04:57:13;;;;;;;235.63;84.03;;;;;;;1.81;100.00;98762.05;1675007;84;21010;-76
2024/01/05 04:59:41;;;;;;;240.68;83.55;;;;;;;1.78;100.00;98765.95;1675005;86;21576;-79
2024/01/05 05:02:10;;;;;;;232.32;82.67;;;;;;;1.78;100.00;98765.11;1675015;84;21454;-77
2024/01/05 05:04:38;;;;;;;237.32;84.50;;;;;;;1.78;100.00;98769.16;1675102;85;21182;-79
2024/01/05 05:07:07;;;;;;;234.07;80.50;;;;;;;1.81;100.00;98774.20;1674996;85;21050;-77
2024/01/05 05:09:35;;;;;;;245.30;87.67;;;;;;;1.80;100.00;98780.11;1674992;85;21050;-77
2024/01/05 05:12:06;;;;;;;250.72;89.80;;;;;;;1.78;100.00;98782.66;1674972;85;21019;-77
2024/01/05 05:14:34;;;;;;;253.02;88.92;;;;;;;1.79;100.00;98783.83;1675002;85;21520;-76
2024/01/05 05:17:03;;;;;;;214.38;80.20;;;;;;;1.79;100.00;98787.88;1675001;85;21105;-78
2024/01/05 05:19:32;;;;;;;231.87;83.30;;;;;;;1.83;100.00;98792.41;1675159;86;21105;-77
2024/01/05 05:22:00;;;;;;;208.50;78.62;;;;;;;1.88;100.00;98801.64;1674951;84;21070;-78
2024/01/05 05:24:29;;;;;;;166.37;64.87;;;;;;;1.96;100.00;98795.88;1674972;84;21030;-78
2024/01/05 05:26:58;;;;;;;154.68;62.15;;;;;;;2.05;100.00;98799.67;1674970;84;21049;-76
2024/01/05 05:29:27;;;;;;;157.00;63.50;;;;;;;2.17;100.00;98802.77;1674992;86;21081;-76
2024/01/05 05:31:55;;;;;;;197.07;77.60;;;;;;;2.32;100.00;98805.50;1674891;85;21458;-75
2024/01/05 05:34:24;;;;;;;211.28;78.65;;;;;;;2.42;100.00;98804.72;1674997;86;21113;-76
2024/01/05 05:36:52;;;;;;;225.13;86.37;;;;;;;2.50;100.00;98800.06;1674982;86;21614;-76
2024/01/05 05:39:20;;;;;;;156.02;66.33;;;;;;;2.57;100.00;98808.27;1675013;86;21462;-74
2024/01/05 05:41:49;;;;;;;138.75;59.40;;;;;;;2.62;100.00;98807.74;1675263;84;21038;-77
2024/01/05 05:44:17;;;;;;;124.25;59.85;;;;;;;2.71;100.00;98814.22;1657761;83;21491;-77
2024/01/05 05:46:46;;;;;;;126.27;58.02;;;;;;;2.85;100.00;98816.08;1674943;84;21049;-77
2024/01/05 05:49:14;;;;;;;168.02;73.87;;;;;;;3.02;100.00;98819.94;1669391;85;21066;-76
2024/01/05 05:51:43;;;;;;;141.82;63.92;;;;;;;3.15;100.00;98817.41;1675046;85;21090;-78
2024/01/05 05:54:11;;;;;;;129.42;57.27;;;;;;;3.27;100.00;98831.31;1675226;84;21106;-78
2024/01/05 05:56:41;;;;;;;125.53;56.60;;;;;;;3.36;100.00;98831.53;1675007;86;21085;-77
2024/01/05 05:59:10;;;;;;;65.67;33.35;;;;;;;3.43;100.00;98827.87;1675175;86;21055;-77
2024/01/05 06:01:38;;;;;;;94.92;41.65;;;;;;;3.49;100.00;98839.30;1674946;86;21058;-77
2024/01/05 06:04:07;;;;;;;131.05;57.75;;;;;;;3.57;100.00;98842.91;1674844;84;21117;-77
2024/01/05 06:06:37;;;;;;;120.65;52.95;;;;;;;3.66;100.00;98845.83;1674881;85;21491;-77
2024/01/05 06:09:07;;;;;;;107.45;52.25;;;;;;;3.71;100.00;98846.09;1674890;86;21157;-77
2024/01/05 06:11:35;;;;;;;108.03;54.75;;;;;;;3.77;100.00;98849.39;1669373;85;21042;-77
2024/01/05 06:14:04;;;;;;;115.20;56.55;;;;;;;3.80;100.00;98852.55;1674921;86;21520;-77
2024/01/05 06:16:33;;;;;;;119.33;58.10;;;;;;;3.84;100.00;98853.00;1675230;84;21078;-78
2024/01/05 06:19:02;;;;;;;125.07;57.67;;;;;;;3.89;100.00;98849.20;1675172;85;21086;-78
2024/01/05 06:21:31;;;;;;;96.10;46.00;;;;;;;3.93;100.00;98854.59;1674943;85;21057;-77
2024/01/05 06:24:01;;;;;;;59.08;30.37;;;;;;;3.95;100.00;98859.30;1657867;86;21125;-76
2024/01/05 06:26:31;;;;;;;37.25;18.92;;;;;;;3.99;100.00;98860.59;1675134;86;21054;-76
2024/01/05 06:28:59;;;;;;;52.75;24.30;;;;;;;4.03;100.00;98860.52;1674864;85;21564;-75
2024/01/05 06:31:28;;;;;;;39.95;20.25;;;;;;;4.07;100.00;98870.46;1675118;85;21066;-76
2024/01/05 06:33:56;;;;;;;45.03;22.82;;;;;;;4.10;100.00;98874.97;1674829;84;21018;-77
2024/01/05 06:36:27;;;;;;;35.68;18.87;;;;;;;4.12;100.00;98860.71;1675248;84;21046;-76
2024/01/05 06:38:55;;;;;;;31.00;16.35;;;;;;;4.14;100.00;98872.20;1674981;84;21550;-76
2024/01/05 06:41:24;;;;;;;32.00;16.62;;;;;;;4.14;100.00;98871.36;1674889;84;21081;-76
2024/01/05 06:43:52;;;;;;;34.25;17.20;;;;;;;4.14;100.00;98883.04;1683957;84;21579;-78
2024/01/05 06:46:21;;;;;;;30.80;17.10;;;;;;;4.17;100.00;98886.39;1704887;84;21081;-77
2024/01/05 06:48:50;;;;;;;24.32;12.78;;;;;;;4.19;100.00;98893.81;1704751;83;21002;-77
2024/01/05 06:51:19;;;;;;;27.65;14.05;;;;;;;4.18;100.00;98898.40;1704876;84;21034;-76
2024/01/05 06:53:48;;;;;;;28.05;14.65;;;;;;;4.21;100.00;98906.66;1704866;84;21069;-79
2024/01/05 06:56:18;;;;;;;27.02;14.93;;;;;;;4.23;100.00;98904.59;1704840;84;21007;-77
2024/01/05 06:58:46;;;;;;;28.87;15.70;;;;;;;4.24;100.00;98914.41;1704738;82;21046;-78
2024/01/05 07:01:17;;;;;;;23.87;12.82;;;;;;;4.24;100.00;98921.18;1704908;84;21029;-77
2024/01/05 07:03:45;;;;;;;15.15;8.48;;;;;;;4.22;100.00;98921.89;1704672;84;21458;-78
2024/01/05 07:06:14;;;;;;;17.95;8.70;;;;;;;4.20;100.00;98936.16;1704812;83;21042;-79
2024/01/05 07:08:43;;;;;;;19.50;9.45;;;;;;;4.14;100.00;98935.89;1704669;84;21074;-79
2024/01/05 07:11:24;;;;;;;15.75;7.33;;;;;;;4.09;100.00;98940.20;1704735;83;21521;-81
2024/01/05 07:13:52;;;;;;;17.10;9.50;;;;;;;4.02;100.00;98944.20;1704701;82;21087;-81
2024/01/05 07:16:21;;;;;;;15.95;8.30;;;;;;;3.99;100.00;98953.23;1704818;83;21467;-82
2024/01/05 07:18:50;;;;;;;15.10;8.00;;;;;;;3.92;100.00;98957.22;1704840;83;21045;-80
2024/01/05 07:21:18;;;;;;;13.38;6.72;;;;;;;3.85;100.00;98968.46;1704779;84;21018;-79
2024/01/05 07:23:47;;;;;;;15.05;7.03;;;;;;;3.80;100.00;98969.03;1704752;84;21042;-82
2024/01/05 07:26:21;;;;;;;12.43;6.42;;;;;;;3.74;100.00;98979.78;1686933;84;21082;-80
2024/01/05 07:28:50;;;;;;;13.20;5.62;;;;;;;3.66;100.00;98979.89;1704820;83;21536;-81
2024/01/05 07:31:23;;;;;;;13.30;6.87;;;;;;;3.58;100.00;98994.87;1704922;84;21073;-81
2024/01/05 07:33:52;;;;;;;15.95;7.45;;;;;;;3.52;100.00;98991.56;1704933;83;21110;-82
2024/01/05 07:36:21;;;;;;;11.48;6.42;;;;;;;3.47;100.00;98997.55;1704887;82;21045;-81
2024/01/05 07:38:50;;;;;;;14.53;6.75;;;;;;;3.43;100.00;98997.59;1704953;84;21022;-81
2024/01/05 07:41:18;;;;;;;13.08;6.72;;;;;;;3.41;100.00;99009.12;1704871;83;21034;-81
2024/01/05 07:43:47;;;;;;;13.80;6.95;;;;;;;3.40;100.00;99020.97;1698319;83;21054;-80
2024/01/05 07:46:16;;;;;;;14.80;7.25;;;;;;;3.42;100.00;99021.11;1699783;83;21486;-81
2024/01/05 07:48:44;;;;;;;11.88;6.90;;;;;;;3.43;100.00;99035.49;1699895;83;21101;-80
2024/01/05 07:51:13;;;;;;;13.03;7.55;;;;;;;3.41;100.00;99035.67;1699691;84;21046;-80
2024/01/05 07:53:42;;;;;;;11.85;7.08;;;;;;;3.42;100.00;99041.93;1699697;83;21569;-82
2024/01/05 07:56:11;;;;;;;13.72;8.23;;;;;;;3.38;100.00;99040.11;1699724;84;21069;-79
2024/01/05 07:58:40;;;;;;;15.23;7.95;;;;;;;3.39;100.00;99053.12;1699628;83;21054;-79
2024/01/05 08:01:10;;;;;;;15.60;8.80;;;;;;;3.38;100.00;99052.30;1699827;83;21031;-79
2024/01/05 08:03:39;;;;;;;17.52;8.50;;;;;;;3.42;100.00;99064.43;1689954;84;21537;-80
2024/01/05 08:06:07;;;;;;;13.72;7.50;;;;;;;3.41;100.00;99065.45;1689943;84;21502;-79
2024/01/05 08:08:36;;;;;;;15.43;7.72;;;;;;;3.40;100.00;99073.77;1703705;84;21449;-81
2024/01/05 08:11:05;;;;;;;12.80;7.72;;;;;;;3.36;100.00;99079.22;1699720;84;21042;-79
2024/01/05 08:13:33;;;;;;;15.98;8.40;;;;;;;3.33;100.00;99083.13;1699720;84;21478;-80
2024/01/05 08:16:03;;;;;;;16.27;8.38;;;;;;;3.31;100.00;99090.59;1699629;84;21082;-80
2024/01/05 08:18:32;;;;;;;16.00;8.80;;;;;;;3.29;100.00;99095.86;1700017;83;21161;-80
2024/01/05 08:21:02;;;;;;;14.20;8.33;;;;;;;3.27;100.00;99101.46;1690169;84;21063;-80
2024/01/05 08:23:32;;;;;;;15.23;8.10;;;;;;;3.24;100.00;99109.91;1699733;83;21006;-81
2024/01/05 08:26:01;;;;;;;15.32;8.10;;;;;;;3.23;100.00;99112.29;1699672;83;21003;-79
2024/01/05 08:28:30;;;;;;;12.95;7.58;;;;;;;3.21;100.00;99118.39;1699733;83;21026;-82
2024/01/05 08:30:59;;;;;;;14.87;8.73;;;;;;;3.17;100.00;99125.20;1699658;84;21540;-78
2024/01/05 08:33:28;;;;;;;13.88;8.40;;;;;;;3.13;100.00;99127.42;1699755;83;21055;-80
2024/01/05 08:35:57;;;;;;;16.10;8.83;;;;;;;3.13;100.00;99124.72;1699752;84;21062;-79
2024/01/05 08:38:28;;;;;;;27.55;13.32;;;;;;;3.11;100.00;99138.94;1703459;84;21497;-79
2024/01/05 08:40:56;;;;;;;15.25;9.48;;;;;;;3.09;100.00;99142.85;1699612;84;21073;-77
2024/01/05 08:43:25;;;;;;;18.20;9.70;;;;;;;3.09;100.00;99144.20;1699812;83;21046;-79
2024/01/05 08:45:53;;;;;;;17.57;9.15;;;;;;;3.10;100.00;99154.00;1703893;82;21485;-80
2024/01/05 08:48:21;;;;;;;18.82;10.23;;;;;;;3.09;100.00;99149.62;1670849;86;21599;-79
2024/01/05 08:50:50;;;;;;;16.15;9.10;;;;;;;3.07;100.00;99159.78;1670876;85;21102;-78
2024/01/05 08:53:21;;;;;;;17.35;9.45;;;;;;;3.03;100.00;99157.10;1670916;84;21079;-77
2024/01/05 08:55:49;;;;;;;21.23;10.98;;;;;;;3.03;100.00;99162.52;1704650;84;21085;-78
2024/01/05 08:58:19;;;;;;;22.25;11.35;;;;;;;3.02;100.00;99174.36;1704247;84;21058;-78
2024/01/05 09:00:49;;;;;;;20.17;11.55;;;;;;;3.04;100.00;99172.31;1709259;82;21088;-79
2024/01/05 09:03:17;;;;;;;21.42;11.35;;;;;;;3.06;100.00;99178.39;1711399;82;21069;-79
2024/01/05 09:05:46;;;;;;;27.65;13.25;;;;;;;3.11;100.00;99175.47;1675015;83;21090;-81
2024/01/05 09:08:15;;;;;;;21.85;11.35;;;;;;;3.17;100.00;99186.09;1679267;82;21093;-82
2024/01/05 09:10:43;;;;;;;20.48;12.43;;;;;;;3.19;100.00;99191.66;1737187;82;21033;-83
2024/01/05 09:13:12;;;;;;;20.75;12.70;;;;;;;3.18;100.00;99192.67;1737325;82;21470;-82
2024/01/05 09:15:40;;;;;;;23.12;12.58;;;;;;;3.20;100.00;99199.26;1737128;82;21073;-81
2024/01/05 09:18:08;;;;;;;21.95;12.70;;;;;;;3.22;100.00;99202.63;1708460;82;21404;-82
2024/01/05 09:20:39;;;;;;;20.62;12.15;;;;;;;3.19;100.00;99197.58;1676906;84;20991;-82
2024/01/05 09:23:08;;;;;;;26.00;14.65;;;;;;;3.17;100.00;99190.15;1704371;84;21036;-81
2024/01/05 09:25:37;;;;;;;22.62;12.88;;;;;;;3.17;100.00;99196.91;1704345;84;21083;-80
2024/01/05 09:28:07;;;;;;;21.97;12.73;;;;;;;3.18;100.00;99200.80;1677125;84;21055;-80
2024/01/05 09:30:35;;;;;;;20.27;12.88;;;;;;;3.17;100.00;99199.62;1654285;84;21082;-80
2024/01/05 09:33:04;;;;;;;23.98;12.50;;;;;;;3.15;100.00;99213.84;1704195;84;21415;-77
2024/01/05 09:35:33;;;;;;;21.50;11.55;;;;;;;3.14;100.00;99213.52;1704482;84;21109;-78
2024/01/05 09:38:02;;;;;;;21.70;12.28;;;;;;;3.13;100.00;99222.65;1670707;86;21094;-79
2024/01/05 09:40:31;;;;;;;24.50;13.40;;;;;;;3.13;100.00;99216.73;1704593;84;21074;-80
2024/01/05 09:43:02;;;;;;;21.35;11.88;;;;;;;3.14;100.00;99217.57;1670660;84;21050;-79
2024/01/05 09:45:30;;;;;;;26.65;13.32;;;;;;;3.11;100.00;99217.42;1667994;84;21467;-80
2024/01/05 09:48:00;;;;;;;19.60;11.55;;;;;;;3.11;100.00;99230.11;1670595;85;21139;-82
2024/01/05 09:50:29;;;;;;;19.82;11.60;;;;;;;3.10;100.00;99231.13;1711894;84;21010;-79
2024/01/05 09:52:58;;;;;;;19.87;10.90;;;;;;;3.09;100.00;99232.15;1711646;84;21043;-81
2024/01/05 09:55:26;;;;;;;21.97;11.48;;;;;;;3.09;100.00;99236.20;1661226;85;21060;-80
2024/01/05 09:57:55;;;;;;;20.68;11.55;;;;;;;3.08;100.00;99246.70;1665959;84;21091;-80
2024/01/05 10:00:26;;;;;;;22.82;12.30;;;;;;;3.07;100.00;99254.48;1665393;84;21048;-81
2024/01/05 10:02:59;;;;;;;25.77;12.10;;;;;;;3.04;100.00;99256.19;1665817;86;21547;-79
2024/01/05 10:05:30;;;;;;;23.32;11.45;;;;;;;3.04;100.00;99254.84;1665238;86;21520;-80
2024/01/05 10:07:59;;;;;;;23.90;12.93;;;;;;;3.04;100.00;99262.95;1617957;86;21048;-79
2024/01/05 10:10:48;;;;;;;22.02;11.90;;;;;;;3.04;100.00;99266.50;1642081;87;21072;-79
2024/01/05 10:13:17;;;;;;;21.97;11.73;;;;;;;3.04;100.00;99273.78;1669639;86;21557;-79
2024/01/05 10:15:56;;;;;;;23.12;11.05;;;;;;;3.00;100.00;99269.74;1669641;86;21047;-77
2024/01/05 10:18:25;;;;;;;21.77;12.40;;;;;;;2.98;100.00;99269.08;1669756;84;21570;-81
2024/01/05 10:20:57;;;;;;;24.98;12.95;;;;;;;2.94;100.00;99269.09;1637457;88;21057;-78
2024/01/05 10:23:28;;;;;;;24.60;12.45;;;;;;;2.94;100.00;99276.70;1642104;87;21079;-76
2024/01/05 10:25:57;;;;;;;22.42;12.37;;;;;;;2.94;100.00;99279.92;1669865;86;21119;-78
2024/01/05 10:28:32;;;;;;;25.52;13.93;;;;;;;2.92;100.00;99288.72;1637561;88;21072;-75
2024/01/05 10:31:16;;;;;;;20.85;11.93;;;;;;;2.85;100.00;99298.89;1642038;87;21148;-79
2024/01/05 10:33:53;;;;;;;29.07;14.55;;;;;;;2.79;100.00;99304.16;1669730;86;21071;-79
2024/01/05 10:36:23;;;;;;;29.25;14.70;;;;;;;2.69;100.00;99305.72;1669761;86;21040;-79
2024/01/05 10:38:51;;;;;;;29.87;15.93;;;;;;;2.66;100.00;99310.13;1637236;88;21140;-80
2024/01/05 10:41:23;;;;;;;30.55;17.07;;;;;;;2.61;100.00;99307.09;1650118;86;21490;-79
2024/01/05 10:43:52;;;;;;;32.58;16.48;;;;;;;2.58;100.00;99326.34;1633102;88;21122;-78
2024/01/05 10:46:21;;;;;;;34.58;17.40;;;;;;;2.53;100.00;99319.25;1656240;86;21083;-81
2024/01/05 10:48:50;;;;;;;28.87;15.68;;;;;;;2.52;100.00;99313.00;1644765;87;21093;-80
2024/01/05 10:51:19;;;;;;;29.10;16.15;;;;;;;2.50;100.00;99329.91;1642199;86;21114;-79
2024/01/05 10:53:49;;;;;;;31.85;18.15;;;;;;;2.46;100.00;99325.02;1674877;86;21049;-79
2024/01/05 10:56:19;;;;;;;29.02;16.10;;;;;;;2.44;100.00;99337.86;1674908;86;21105;-78
2024/01/05 10:58:49;;;;;;;32.88;17.75;;;;;;;2.42;100.00;99342.59;1674959;86;21765;-77
2024/01/05 11:01:22;;;;;;;34.00;18.23;;;;;;;2.39;100.00;99353.75;1674731;84;21045;-80
2024/01/05 11:03:52;;;;;;;38.10;18.73;;;;;;;2.37;100.00;99355.78;1674927;84;21085;-79
2024/01/05 11:06:21;;;;;;;36.93;18.82;;;;;;;2.38;100.00;99366.92;1674904;84;21065;-77
2024/01/05 11:09:01;;;;;;;34.53;18.62;;;;;;;2.40;100.00;99368.95;1673344;86;21066;-73
2024/01/05 11:11:54;;;;;;;37.63;19.35;;;;;;;2.41;100.00;99375.53;1671948;86;21063;-75
2024/01/05 11:14:44;;;;;;;31.80;17.60;;;;;;;2.43;100.00;99369.96;1671464;86;21054;-72
2024/01/05 11:17:31;;;;;;;34.98;19.05;;;;;;;2.42;100.00;99386.69;1671823;86;21085;-74
2024/01/05 11:20:44;;;;;;;34.95;19.30;;;;;;;2.42;100.00;99384.48;1672146;86;21097;-74
2024/01/05 11:23:13;;;;;;;33.92;18.95;;;;;;;2.41;100.00;99385.50;1671653;86;21090;-72
2024/01/05 11:25:43;;;;;;;47.58;23.52;;;;;;;2.38;100.00;99395.30;1671700;86;21053;-73